Time,TemperatureF,DewpointF,PressureIn,WindDirection,WindDirectionDegrees,WindSpeedMPH,WindSpeedGustMPH,Humidity,HourlyPrecipIn,Conditions,Clouds,dailyrainin,SolarRadiationWatts/m^2,SoftwareType,DateUTC
2013-04-03 00:06:00,51.4,47.0,31.06,ENE,75,0.0,0.0,85,0.00,,,0.00,0,Wunderground v.1.15,2013-04-03 07:06:00,
2013-04-03 00:12:00,51.4,47.0,31.06,ENE,75,0.0,0.0,85,0.00,,,0.00,0,Wunderground v.1.15,2013-04-03 07:12:00,
2013-04-03 00:18:00,51.5,47.1,31.06,ENE,75,0.0,1.0,85,0.00,,,0.00,0,Wunderground v.1.15,2013-04-03 07:18:00,
2013-04-03 00:26:00,51.7,47.6,31.06,ENE,75,1.0,1.0,86,0.00,,,0.00,0,Wunderground v.1.15,2013-04-03 07:26:00,
2013-04-03 00:32:00,51.8,47.4,31.06,ENE,75,1.0,2.0,85,0.00,,,0.00,0,Wunderground v.1.15,2013-04-03 07:32:00,
2013-04-03 00:38:00,51.9,47.8,31.06,ENE,75,1.0,2.0,86,0.00,,,0.00,0,Wunderground v.1.15,2013-04-03 07:38:00,
2013-04-03 00:48:00,51.9,47.8,31.06,ENE,75,1.0,4.0,86,0.00,,,0.00,0,Wunderground v.1.15,2013-04-03 07:48:00,
2013-04-03 00:58:00,51.9,47.8,31.06,ENE,75,1.0,3.0,86,0.00,,,0.00,0,Wunderground v.1.15,2013-04-03 07:58:00,
2013-04-03 01:08:00,51.9,47.8,31.06,ENE,75,1.0,2.0,86,0.00,,,0.00,0,Wunderground v.1.15,2013-04-03 08:08:00,
2013-04-03 01:16:00,52.0,47.9,31.06,ENE,75,1.0,1.0,86,0.00,,,0.00,0,Wunderground v.1.15,2013-04-03 08:16:00,
2013-04-03 01:22:00,52.1,48.0,31.06,ENE,75,1.0,1.0,86,0.00,,,0.00,0,Wunderground v.1.15,2013-04-03 08:22:00,
2013-04-03 01:28:00,52.2,48.1,31.06,ENE,75,1.0,1.0,86,0.00,,,0.00,0,Wunderground v.1.15,2013-04-03 08:28:00,
2013-04-03 01:34:00,52.2,48.1,31.06,ENE,75,1.0,1.0,86,0.00,,,0.00,0,Wunderground v.1.15,2013-04-03 08:34:00,
2013-04-03 01:40:00,52.3,48.2,31.06,ENE,75,1.0,1.0,86,0.00,,,0.00,0,Wunderground v.1.15,2013-04-03 08:40:00,
2013-04-03 01:46:00,52.3,48.2,31.06,ENE,77,1.0,2.0,86,0.00,,,0.00,0,Wunderground v.1.15,2013-04-03 08:46:00,
2013-04-03 01:52:00,52.3,48.2,31.06,SE,133,1.0,1.0,86,0.00,,,0.00,0,Wunderground v.1.15,2013-04-03 08:52:00,
2013-04-03 01:58:00,52.3,48.2,31.05,SE,134,1.0,2.0,86,0.00,,,0.00,0,Wunderground v.1.15,2013-04-03 08:58:00,
2013-04-03 02:06:00,52.3,48.2,31.05,SE,134,1.0,1.0,86,0.00,,,0.00,0,Wunderground v.1.15,2013-04-03 09:06:00,
2013-04-03 02:12:00,52.3,48.2,31.05,SE,133,0.0,3.0,86,0.00,,,0.00,0,Wunderground v.1.15,2013-04-03 09:12:00,
2013-04-03 02:18:00,52.3,48.2,31.05,SE,134,1.0,3.0,86,0.00,,,0.00,0,Wunderground v.1.15,2013-04-03 09:18:00,
2013-04-03 02:26:00,52.2,48.1,31.05,SE,134,1.0,2.0,86,0.00,,,0.00,0,Wunderground v.1.15,2013-04-03 09:26:00,
2013-04-03 02:32:00,52.2,48.1,31.05,SE,134,1.0,1.0,86,0.00,,,0.00,0,Wunderground v.1.15,2013-04-03 09:32:00,
2013-04-03 02:38:00,52.2,48.1,31.05,SE,134,1.0,2.0,86,0.00,,,0.00,0,Wunderground v.1.15,2013-04-03 09:38:00,
2013-04-03 02:46:00,52.1,48.0,31.05,SE,134,1.0,1.0,86,0.00,,,0.00,0,Wunderground v.1.15,2013-04-03 09:46:00,
2013-04-03 02:52:00,52.1,48.0,31.04,SE,134,0.0,2.0,86,0.00,,,0.00,0,Wunderground v.1.15,2013-04-03 09:52:00,
2013-04-03 02:58:00,52.1,48.0,31.04,SE,134,0.0,2.0,86,0.00,,,0.00,0,Wunderground v.1.15,2013-04-03 09:58:00,
2013-04-03 03:04:00,52.1,48.0,31.04,SE,134,0.0,0.0,86,0.00,,,0.00,0,Wunderground v.1.15,2013-04-03 10:04:00,
2013-04-03 03:10:00,52.1,48.0,31.04,SE,134,0.0,1.0,86,0.00,,,0.00,0,Wunderground v.1.15,2013-04-03 10:10:00,
2013-04-03 03:16:00,52.1,48.0,31.04,SE,134,0.0,1.0,86,0.00,,,0.00,0,Wunderground v.1.15,2013-04-03 10:16:00,
2013-04-03 03:22:00,52.1,48.0,31.04,SE,134,0.0,0.0,86,0.00,,,0.00,0,Wunderground v.1.15,2013-04-03 10:22:00,
2013-04-03 03:28:00,52.1,48.0,31.03,SE,134,0.0,1.0,86,0.00,,,0.00,0,Wunderground v.1.15,2013-04-03 10:28:00,
2013-04-03 03:38:00,52.1,48.0,31.03,SE,134,0.0,1.0,86,0.00,,,0.00,0,Wunderground v.1.15,2013-04-03 10:38:00,
2013-04-03 03:46:00,52.0,47.9,31.03,SE,134,0.0,1.0,86,0.00,,,0.00,0,Wunderground v.1.15,2013-04-03 10:46:00,
2013-04-03 03:52:00,51.9,47.8,31.03,SE,134,0.0,0.0,86,0.00,,,0.00,0,Wunderground v.1.15,2013-04-03 10:52:00,
2013-04-03 03:58:00,51.9,47.8,31.03,SE,134,0.0,1.0,86,0.00,,,0.00,0,Wunderground v.1.15,2013-04-03 10:58:00,
2013-04-03 04:06:00,51.9,47.8,31.03,SE,134,0.0,0.0,86,0.00,,,0.00,0,Wunderground v.1.15,2013-04-03 11:06:00,
2013-04-03 04:12:00,51.8,47.7,31.03,SE,134,0.0,0.0,86,0.00,,,0.00,0,Wunderground v.1.15,2013-04-03 11:12:00,
2013-04-03 04:18:00,51.8,47.7,31.03,SE,134,0.0,1.0,86,0.00,,,0.00,0,Wunderground v.1.15,2013-04-03 11:18:00,
2013-04-03 04:28:00,51.9,48.2,31.02,SE,134,0.0,0.0,87,0.00,,,0.00,0,Wunderground v.1.15,2013-04-03 11:28:00,
2013-04-03 04:38:00,51.9,48.2,31.02,SE,134,0.0,0.0,87,0.00,,,0.00,0,Wunderground v.1.15,2013-04-03 11:38:00,
2013-04-03 04:46:00,51.8,48.1,31.02,SE,134,0.0,0.0,87,0.00,,,0.00,0,Wunderground v.1.15,2013-04-03 11:46:00,
2013-04-03 04:52:00,51.7,48.0,31.02,SE,134,0.0,1.0,87,0.00,,,0.00,0,Wunderground v.1.15,2013-04-03 11:52:00,
2013-04-03 04:58:00,51.7,47.6,31.02,SE,134,0.0,1.0,86,0.00,,,0.00,0,Wunderground v.1.15,2013-04-03 11:58:00,
2013-04-03 05:06:00,51.7,47.6,31.02,SE,134,0.0,0.0,86,0.00,,,0.00,0,Wunderground v.1.15,2013-04-03 12:06:00,
2013-04-03 05:12:00,51.7,47.6,31.02,SE,134,0.0,0.0,86,0.00,,,0.00,0,Wunderground v.1.15,2013-04-03 12:12:00,
2013-04-03 05:18:00,51.7,47.6,31.02,SE,134,0.0,0.0,86,0.00,,,0.00,0,Wunderground v.1.15,2013-04-03 12:18:00,
2013-04-03 05:26:00,51.6,47.5,31.01,SE,134,0.0,0.0,86,0.00,,,0.00,0,Wunderground v.1.15,2013-04-03 12:26:00,
2013-04-03 05:32:00,51.5,47.5,31.01,SE,134,0.0,1.0,86,0.00,,,0.00,0,Wunderground v.1.15,2013-04-03 12:32:00,
2013-04-03 05:38:00,51.5,47.5,31.01,SE,134,0.0,1.0,86,0.00,,,0.00,0,Wunderground v.1.15,2013-04-03 12:38:00,
2013-04-03 05:46:00,51.4,47.4,31.01,SE,134,1.0,2.0,86,0.00,,,0.00,0,Wunderground v.1.15,2013-04-03 12:46:00,
2013-04-03 05:52:00,51.4,47.7,31.02,SE,134,1.0,1.0,87,0.00,,,0.00,0,Wunderground v.1.15,2013-04-03 12:52:00,
2013-04-03 05:58:00,51.3,47.6,31.01,SE,134,0.0,1.0,87,0.00,,,0.00,0,Wunderground v.1.15,2013-04-03 12:58:00,
2013-04-03 06:08:00,51.2,47.5,31.01,SE,134,0.0,1.0,87,0.00,,,0.00,0,Wunderground v.1.15,2013-04-03 13:08:00,
2013-04-03 06:18:00,51.0,47.3,31.01,SE,134,0.0,2.0,87,0.00,,,0.00,0,Wunderground v.1.15,2013-04-03 13:18:00,
2013-04-03 06:26:00,51.0,47.3,31.01,SE,134,0.0,0.0,87,0.00,,,0.00,0,Wunderground v.1.15,2013-04-03 13:26:00,
2013-04-03 06:32:00,51.0,47.3,31.01,SE,134,0.0,1.0,87,0.00,,,0.00,0,Wunderground v.1.15,2013-04-03 13:32:00,
2013-04-03 06:38:00,50.9,47.2,31.02,SE,134,0.0,1.0,87,0.00,,,0.00,0,Wunderground v.1.15,2013-04-03 13:38:00,
2013-04-03 06:46:00,50.9,47.2,31.02,SE,134,0.0,1.0,87,0.00,,,0.00,0,Wunderground v.1.15,2013-04-03 13:46:00,
2013-04-03 06:52:00,50.8,47.1,31.01,SE,134,0.0,0.0,87,0.00,,,0.00,0,Wunderground v.1.15,2013-04-03 13:52:00,
2013-04-03 06:58:00,50.6,46.9,31.02,SE,134,0.0,0.0,87,0.00,,,0.00,5,Wunderground v.1.15,2013-04-03 13:58:00,
2013-04-03 07:08:00,50.3,46.6,31.02,SE,134,0.0,0.0,87,0.00,,,0.00,7,Wunderground v.1.15,2013-04-03 14:08:00,
2013-04-03 07:18:00,50.3,46.6,31.03,SE,134,0.0,0.0,87,0.00,,,0.00,12,Wunderground v.1.15,2013-04-03 14:18:00,
2013-04-03 07:26:00,50.3,46.6,31.03,SE,134,0.0,0.0,87,0.00,,,0.00,40,Wunderground v.1.15,2013-04-03 14:26:00,
2013-04-03 07:32:00,50.3,46.6,31.03,SE,134,0.0,1.0,87,0.00,,,0.00,70,Wunderground v.1.15,2013-04-03 14:32:00,
2013-04-03 07:38:00,50.5,46.8,31.03,SE,134,0.0,1.0,87,0.00,,,0.00,77,Wunderground v.1.15,2013-04-03 14:38:00,
2013-04-03 07:46:00,50.7,47.0,31.03,SE,134,0.0,0.0,87,0.00,,,0.00,91,Wunderground v.1.15,2013-04-03 14:46:00,
2013-04-03 07:52:00,50.9,47.2,31.03,SE,134,0.0,0.0,87,0.00,,,0.00,102,Wunderground v.1.15,2013-04-03 14:52:00,
2013-04-03 08:00:00,51.2,47.5,31.03,SE,134,0.0,1.0,87,0.00,,,0.00,109,Wunderground v.1.15,2013-04-03 15:00:00,
2013-04-03 08:08:00,51.4,47.7,31.04,SE,134,0.0,1.0,87,0.00,,,0.00,134,Wunderground v.1.15,2013-04-03 15:08:00,
2013-04-03 08:14:00,51.6,48.2,31.04,SE,134,0.0,0.0,88,0.00,,,0.00,81,Wunderground v.1.15,2013-04-03 15:14:00,
2013-04-03 08:20:00,51.7,48.0,31.04,SE,134,0.0,0.0,87,0.00,,,0.00,60,Wunderground v.1.15,2013-04-03 15:20:00,
2013-04-03 08:26:00,51.7,48.0,31.04,SE,134,1.0,1.0,87,0.00,,,0.00,60,Wunderground v.1.15,2013-04-03 15:26:00,
2013-04-03 08:32:00,51.7,48.0,31.04,SE,134,0.0,1.0,87,0.00,,,0.00,204,Wunderground v.1.15,2013-04-03 15:32:00,
2013-04-03 08:38:00,51.9,48.2,31.03,SE,134,0.0,1.0,87,0.00,,,0.00,214,Wunderground v.1.15,2013-04-03 15:38:00,
2013-04-03 08:46:00,52.3,48.5,31.04,SE,134,0.0,1.0,87,0.00,,,0.00,258,Wunderground v.1.15,2013-04-03 15:46:00,
2013-04-03 08:52:00,52.6,48.8,31.04,SE,134,0.0,0.0,87,0.00,,,0.00,183,Wunderground v.1.15,2013-04-03 15:52:00,
2013-04-03 08:58:00,53.0,49.5,31.03,SE,134,0.0,0.0,88,0.00,,,0.00,424,Wunderground v.1.15,2013-04-03 15:58:00,
2013-04-03 09:06:00,54.0,50.2,31.03,SE,134,0.0,1.0,87,0.00,,,0.00,517,Wunderground v.1.15,2013-04-03 16:06:00,
2013-04-03 09:12:00,54.6,50.8,31.04,SE,134,0.0,1.0,87,0.00,,,0.00,355,Wunderground v.1.15,2013-04-03 16:12:00,
2013-04-03 09:18:00,55.2,51.1,31.04,SE,134,0.0,1.0,86,0.00,,,0.00,315,Wunderground v.1.15,2013-04-03 16:18:00,
2013-04-03 09:28:00,55.9,50.8,31.04,ESE,106,1.0,1.0,83,0.00,,,0.00,443,Wunderground v.1.15,2013-04-03 16:28:00,
2013-04-03 09:38:00,56.2,50.4,31.03,ESE,105,1.0,2.0,81,0.00,,,0.00,434,Wunderground v.1.15,2013-04-03 16:38:00,
2013-04-03 09:48:00,57.0,50.5,31.03,ESE,105,1.0,1.0,79,0.00,,,0.00,466,Wunderground v.1.15,2013-04-03 16:48:00,
2013-04-03 09:58:00,58.0,50.8,31.03,ESE,105,0.0,1.0,77,0.00,,,0.00,548,Wunderground v.1.15,2013-04-03 16:58:00,
2013-04-03 10:06:00,59.0,50.7,31.03,ESE,105,0.0,4.0,74,0.00,,,0.00,485,Wunderground v.1.15,2013-04-03 17:06:00,
2013-04-03 10:12:00,59.8,50.8,31.04,ESE,105,1.0,1.0,72,0.00,,,0.00,524,Wunderground v.1.15,2013-04-03 17:12:00,
2013-04-03 10:18:00,60.7,50.9,31.03,ESE,105,0.0,2.0,70,0.00,,,0.00,573,Wunderground v.1.15,2013-04-03 17:18:00,
2013-04-03 10:28:00,61.6,50.5,31.03,ESE,105,0.0,1.0,67,0.00,,,0.00,543,Wunderground v.1.15,2013-04-03 17:28:00,
2013-04-03 10:36:00,62.8,50.9,31.03,ESE,105,0.0,1.0,65,0.00,,,0.00,468,Wunderground v.1.15,2013-04-03 17:36:00,
2013-04-03 10:46:00,63.4,50.6,31.03,ESE,105,1.0,1.0,63,0.00,,,0.00,483,Wunderground v.1.15,2013-04-03 17:46:00,
2013-04-03 10:52:00,64.0,51.1,31.03,ESE,105,1.0,1.0,63,0.00,,,0.00,394,Wunderground v.1.15,2013-04-03 17:52:00,
2013-04-03 10:58:00,64.4,50.7,31.03,ESE,106,1.0,3.0,61,0.00,,,0.00,399,Wunderground v.1.15,2013-04-03 17:58:00,
2013-04-03 11:06:00,64.0,50.3,31.03,ESE,105,1.0,2.0,61,0.00,,,0.00,172,Wunderground v.1.15,2013-04-03 18:06:00,
2013-04-03 11:12:00,63.6,50.3,31.02,ESE,105,1.0,1.0,62,0.00,,,0.00,237,Wunderground v.1.15,2013-04-03 18:12:00,
2013-04-03 11:18:00,63.4,50.1,31.02,ESE,105,0.0,2.0,62,0.00,,,0.00,225,Wunderground v.1.15,2013-04-03 18:18:00,
2013-04-03 11:26:00,64.1,51.2,31.02,ESE,105,0.0,1.0,63,0.00,,,0.00,770,Wunderground v.1.15,2013-04-03 18:26:00,
2013-04-03 11:32:00,64.8,51.0,31.02,ESE,105,1.0,1.0,61,0.00,,,0.00,726,Wunderground v.1.15,2013-04-03 18:32:00,
2013-04-03 11:38:00,65.1,50.9,31.01,ESE,105,0.0,1.0,60,0.00,,,0.00,793,Wunderground v.1.15,2013-04-03 18:38:00,
2013-04-03 11:46:00,66.3,51.1,31.01,ESE,105,0.0,2.0,58,0.00,,,0.00,731,Wunderground v.1.15,2013-04-03 18:46:00,
2013-04-03 11:52:00,66.5,51.3,31.01,East,93,1.0,4.0,58,0.00,,,0.00,861,Wunderground v.1.15,2013-04-03 18:52:00,
2013-04-03 11:58:00,66.8,52.0,31.01,East,95,1.0,4.0,59,0.00,,,0.00,867,Wunderground v.1.15,2013-04-03 18:58:00,
2013-04-03 12:06:00,68.0,52.2,31.00,East,95,1.0,2.0,57,0.00,,,0.00,874,Wunderground v.1.15,2013-04-03 19:06:00,
2013-04-03 12:12:00,68.8,52.0,31.00,ESE,102,1.0,3.0,55,0.00,,,0.00,886,Wunderground v.1.15,2013-04-03 19:12:00,
2013-04-03 12:18:00,69.1,51.8,31.00,ESE,102,1.0,3.0,54,0.00,,,0.00,889,Wunderground v.1.15,2013-04-03 19:18:00,
2013-04-03 12:28:00,70.2,51.7,30.99,ENE,60,1.0,3.0,52,0.00,,,0.00,902,Wunderground v.1.15,2013-04-03 19:28:00,
2013-04-03 12:36:00,70.1,51.1,30.99,East,80,2.0,3.0,51,0.00,,,0.00,870,Wunderground v.1.15,2013-04-03 19:36:00,
2013-04-03 12:42:00,70.3,51.8,30.98,East,79,1.0,2.0,52,0.00,,,0.00,882,Wunderground v.1.15,2013-04-03 19:42:00,
2013-04-03 12:48:00,71.2,52.7,30.98,East,84,1.0,2.0,52,0.00,,,0.00,863,Wunderground v.1.15,2013-04-03 19:48:00,
2013-04-03 12:58:00,71.2,52.1,30.98,ENE,74,2.0,2.0,51,0.00,,,0.00,888,Wunderground v.1.15,2013-04-03 19:58:00,
2013-04-03 13:12:00,72.8,52.5,30.97,East,90,1.0,1.0,49,0.00,,,0.00,895,Wunderground v.1.15,2013-04-03 20:12:00,
2013-04-03 13:18:00,73.0,53.3,30.97,ENE,73,1.0,2.0,50,0.00,,,0.00,891,Wunderground v.1.15,2013-04-03 20:18:00,
2013-04-03 13:26:00,73.0,53.8,30.97,ENE,61,1.0,3.0,51,0.00,,,0.00,888,Wunderground v.1.15,2013-04-03 20:26:00,
2013-04-03 13:32:00,73.4,53.6,30.96,ENE,61,1.0,3.0,50,0.00,,,0.00,888,Wunderground v.1.15,2013-04-03 20:32:00,
2013-04-03 13:38:00,73.6,53.3,30.96,ENE,61,1.0,3.0,49,0.00,,,0.00,879,Wunderground v.1.15,2013-04-03 20:38:00,
2013-04-03 13:46:00,74.6,53.6,30.95,NE,46,1.0,3.0,48,0.00,,,0.00,879,Wunderground v.1.15,2013-04-03 20:46:00,
2013-04-03 13:52:00,74.2,53.2,30.95,NE,46,1.0,2.0,48,0.00,,,0.00,874,Wunderground v.1.15,2013-04-03 20:52:00,
2013-04-03 13:58:00,74.5,53.5,30.95,NE,46,1.0,3.0,48,0.00,,,0.00,868,Wunderground v.1.15,2013-04-03 20:58:00,
2013-04-03 14:06:00,74.6,53.0,30.94,ESE,109,1.0,5.0,47,0.00,,,0.00,849,Wunderground v.1.15,2013-04-03 21:06:00,
2013-04-03 14:12:00,75.2,53.0,30.94,ESE,109,2.0,2.0,46,0.00,,,0.00,849,Wunderground v.1.15,2013-04-03 21:12:00,
2013-04-03 14:18:00,75.8,52.9,30.93,ESE,105,1.0,2.0,45,0.00,,,0.00,860,Wunderground v.1.15,2013-04-03 21:18:00,
2013-04-03 14:28:00,76.7,53.1,30.93,ESE,105,1.0,2.0,44,0.00,,,0.00,812,Wunderground v.1.15,2013-04-03 21:28:00,
2013-04-03 14:36:00,76.6,52.4,30.93,ENE,68,2.0,2.0,43,0.00,,,0.00,821,Wunderground v.1.15,2013-04-03 21:36:00,
2013-04-03 14:42:00,76.5,52.3,30.92,ENE,68,2.0,2.0,43,0.00,,,0.00,821,Wunderground v.1.15,2013-04-03 21:42:00,
2013-04-03 14:48:00,76.8,52.0,30.92,East,90,1.0,2.0,42,0.00,,,0.00,809,Wunderground v.1.15,2013-04-03 21:48:00,
2013-04-03 14:58:00,77.4,51.9,30.92,East,86,1.0,3.0,41,0.00,,,0.00,791,Wunderground v.1.15,2013-04-03 21:58:00,
2013-04-03 15:06:00,77.5,51.9,30.92,NE,52,1.0,4.0,41,0.00,,,0.00,770,Wunderground v.1.15,2013-04-03 22:06:00,
2013-04-03 15:12:00,77.9,52.3,30.91,WNW,287,1.0,2.0,41,0.00,,,0.00,763,Wunderground v.1.15,2013-04-03 22:12:00,
2013-04-03 15:18:00,77.9,52.3,30.91,WNW,303,2.0,2.0,41,0.00,,,0.00,740,Wunderground v.1.15,2013-04-03 22:18:00,
2013-04-03 15:26:00,79.3,52.9,30.91,NW,321,1.0,3.0,40,0.00,,,0.00,721,Wunderground v.1.15,2013-04-03 22:26:00,
2013-04-03 15:32:00,79.7,53.2,30.91,NW,326,1.0,4.0,40,0.00,,,0.00,707,Wunderground v.1.15,2013-04-03 22:32:00,
2013-04-03 15:38:00,79.1,52.0,30.91,NNW,346,3.0,4.0,39,0.00,,,0.00,693,Wunderground v.1.15,2013-04-03 22:38:00,
2013-04-03 15:46:00,79.6,53.1,30.90,North,355,1.0,3.0,40,0.00,,,0.00,675,Wunderground v.1.15,2013-04-03 22:46:00,
2013-04-03 15:52:00,79.9,53.4,30.90,NNW,348,1.0,4.0,40,0.00,,,0.00,664,Wunderground v.1.15,2013-04-03 22:52:00,
2013-04-03 15:58:00,79.7,53.9,30.90,North,360,2.0,5.0,41,0.00,,,0.00,643,Wunderground v.1.15,2013-04-03 22:58:00,
2013-04-03 16:06:00,79.3,54.2,30.90,West,272,4.0,6.0,42,0.00,,,0.00,622,Wunderground v.1.15,2013-04-03 23:06:00,
2013-04-03 16:12:00,79.2,54.1,30.90,West,271,4.0,4.0,42,0.00,,,0.00,606,Wunderground v.1.15,2013-04-03 23:12:00,
2013-04-03 16:18:00,79.1,54.0,30.89,NNW,329,3.0,4.0,42,0.00,,,0.00,594,Wunderground v.1.15,2013-04-03 23:18:00,
2013-04-03 16:28:00,79.4,54.3,30.89,West,259,3.0,9.0,42,0.00,,,0.00,550,Wunderground v.1.15,2013-04-03 23:28:00,
2013-04-03 16:36:00,79.9,54.1,30.88,NNW,339,1.0,4.0,41,0.00,,,0.00,464,Wunderground v.1.15,2013-04-03 23:36:00,
2013-04-03 16:42:00,79.5,53.7,30.88,WNW,298,2.0,4.0,41,0.00,,,0.00,499,Wunderground v.1.15,2013-04-03 23:42:00,
2013-04-03 16:48:00,79.2,53.5,30.88,West,274,3.0,6.0,41,0.00,,,0.00,441,Wunderground v.1.15,2013-04-03 23:48:00,
2013-04-03 16:56:00,78.7,53.0,30.88,WNW,284,3.0,3.0,41,0.00,,,0.00,323,Wunderground v.1.15,2013-04-03 23:56:00,
2013-04-03 17:02:00,78.2,52.6,30.88,NW,321,2.0,3.0,41,0.00,,,0.00,323,Wunderground v.1.15,2013-04-04 00:02:00,
2013-04-03 17:08:00,77.9,52.3,30.88,NW,323,2.0,3.0,41,0.00,,,0.00,267,Wunderground v.1.15,2013-04-04 00:08:00,
2013-04-03 17:16:00,77.4,52.5,30.88,NNW,336,2.0,6.0,42,0.00,,,0.00,526,Wunderground v.1.15,2013-04-04 00:16:00,
2013-04-03 17:22:00,76.8,52.6,30.88,West,279,4.0,7.0,43,0.00,,,0.00,499,Wunderground v.1.15,2013-04-04 00:22:00,
2013-04-03 17:28:00,76.8,52.6,30.88,NNW,330,4.0,7.0,43,0.00,,,0.00,353,Wunderground v.1.15,2013-04-04 00:28:00,
2013-04-03 17:36:00,76.5,52.3,30.88,West,275,4.0,5.0,43,0.00,,,0.00,325,Wunderground v.1.15,2013-04-04 00:36:00,
2013-04-03 17:42:00,76.6,52.4,30.88,WNW,291,2.0,2.0,43,0.00,,,0.00,367,Wunderground v.1.15,2013-04-04 00:42:00,
2013-04-03 17:48:00,76.6,51.8,30.88,West,263,2.0,3.0,42,0.00,,,0.00,299,Wunderground v.1.15,2013-04-04 00:48:00,
2013-04-03 17:58:00,76.0,51.9,30.88,NW,325,3.0,5.0,43,0.00,,,0.00,306,Wunderground v.1.15,2013-04-04 00:58:00,
2013-04-03 18:08:00,75.4,52.0,30.88,WNW,286,2.0,3.0,44,0.00,,,0.00,156,Wunderground v.1.15,2013-04-04 01:08:00,
2013-04-03 18:16:00,74.9,51.5,30.88,NW,311,1.0,4.0,44,0.00,,,0.00,132,Wunderground v.1.15,2013-04-04 01:16:00,
2013-04-03 18:22:00,73.8,54.5,30.88,NE,55,2.0,2.0,51,0.00,,,0.00,91,Wunderground v.1.15,2013-04-04 01:22:00,
2013-04-03 18:28:00,71.4,54.4,30.88,East,87,3.0,5.0,55,0.00,,,0.00,127,Wunderground v.1.15,2013-04-04 01:28:00,
2013-04-03 18:38:00,67.8,53.4,30.88,ENE,57,3.0,6.0,60,0.00,,,0.00,49,Wunderground v.1.15,2013-04-04 01:38:00,
2013-04-03 18:46:00,65.4,52.9,30.89,ENE,63,3.0,7.0,64,0.00,,,0.00,46,Wunderground v.1.15,2013-04-04 01:46:00,
2013-04-03 18:52:00,64.1,52.9,30.89,ENE,71,2.0,2.0,67,0.00,,,0.00,69,Wunderground v.1.15,2013-04-04 01:52:00,
2013-04-03 18:58:00,63.1,52.4,30.89,ENE,61,2.0,2.0,68,0.00,,,0.00,67,Wunderground v.1.15,2013-04-04 01:58:00,
2013-04-03 19:08:00,61.5,51.6,30.90,North,9,1.0,7.0,70,0.00,,,0.00,40,Wunderground v.1.15,2013-04-04 02:08:00,
2013-04-03 19:14:00,61.1,51.6,30.90,NNE,13,1.0,1.0,71,0.00,,,0.00,32,Wunderground v.1.15,2013-04-04 02:14:00,
2013-04-03 19:20:00,60.8,51.3,30.91,NNE,13,0.0,0.0,71,0.00,,,0.00,19,Wunderground v.1.15,2013-04-04 02:20:00,
2013-04-03 19:28:00,60.4,51.7,30.91,NE,38,0.0,0.0,73,0.00,,,0.00,7,Wunderground v.1.15,2013-04-04 02:28:00,
2013-04-03 19:36:00,60.1,51.8,30.91,NE,49,0.0,2.0,74,0.00,,,0.00,0,Wunderground v.1.15,2013-04-04 02:36:00,
2013-04-03 19:42:00,59.6,51.3,30.91,ENE,64,1.0,1.0,74,0.00,,,0.00,0,Wunderground v.1.15,2013-04-04 02:42:00,
2013-04-03 19:48:00,59.0,50.7,30.91,ENE,64,0.0,2.0,74,0.00,,,0.00,0,Wunderground v.1.15,2013-04-04 02:48:00,
2013-04-03 19:56:00,58.7,50.4,30.91,ENE,64,1.0,1.0,74,0.00,,,0.00,0,Wunderground v.1.15,2013-04-04 02:56:00,
2013-04-03 20:02:00,58.5,50.6,30.91,ENE,64,0.0,1.0,75,0.00,,,0.00,0,Wunderground v.1.15,2013-04-04 03:02:00,
2013-04-03 20:08:00,58.2,50.3,30.92,ENE,64,0.0,1.0,75,0.00,,,0.00,0,Wunderground v.1.15,2013-04-04 03:08:00,
2013-04-03 20:18:00,57.7,49.8,30.92,ENE,64,0.0,1.0,75,0.00,,,0.00,0,Wunderground v.1.15,2013-04-04 03:18:00,
2013-04-03 20:28:00,57.0,49.5,30.92,ENE,61,0.0,1.0,76,0.00,,,0.00,0,Wunderground v.1.15,2013-04-04 03:28:00,
2013-04-03 20:36:00,56.7,49.6,30.92,ENE,61,0.0,0.0,77,0.00,,,0.00,0,Wunderground v.1.15,2013-04-04 03:36:00,
2013-04-03 20:42:00,56.5,49.4,30.92,ENE,60,0.0,2.0,77,0.00,,,0.00,0,Wunderground v.1.15,2013-04-04 03:42:00,
2013-04-03 20:48:00,56.2,49.4,30.92,ENE,61,0.0,2.0,78,0.00,,,0.00,0,Wunderground v.1.15,2013-04-04 03:48:00,
2013-04-03 20:56:00,55.9,49.1,30.92,ENE,61,0.0,0.0,78,0.00,,,0.00,0,Wunderground v.1.15,2013-04-04 03:56:00,
2013-04-03 21:00:00,55.8,49.4,30.93,ENE,61,0.0,0.0,79,0.00,,,0.00,0,Wunderground v.1.15,2013-04-04 04:00:00,
2013-04-03 21:02:00,55.8,49.4,30.93,ENE,60,0.0,0.0,79,0.00,,,0.00,0,Wunderground v.1.15,2013-04-04 04:02:00,
2013-04-03 21:06:00,55.6,49.2,30.93,ENE,61,0.0,0.0,79,0.00,,,0.00,0,Wunderground v.1.15,2013-04-04 04:06:00,
2013-04-03 21:12:00,55.5,49.1,30.93,ENE,60,0.0,0.0,79,0.00,,,0.00,0,Wunderground v.1.15,2013-04-04 04:12:00,
2013-04-03 21:14:00,55.4,49.0,30.93,ENE,61,0.0,0.0,79,0.00,,,0.00,0,Wunderground v.1.15,2013-04-04 04:14:00,
2013-04-03 21:20:00,55.3,49.2,30.93,ENE,61,0.0,1.0,80,0.00,,,0.00,0,Wunderground v.1.15,2013-04-04 04:20:00,
2013-04-03 21:26:00,55.1,49.4,30.94,ENE,61,0.0,1.0,81,0.00,,,0.00,0,Wunderground v.1.15,2013-04-04 04:26:00,
2013-04-03 21:32:00,55.0,49.3,30.93,ENE,61,0.0,0.0,81,0.00,,,0.00,0,Wunderground v.1.15,2013-04-04 04:32:00,
2013-04-03 21:38:00,54.8,49.1,30.94,ENE,60,0.0,0.0,81,0.00,,,0.00,0,Wunderground v.1.15,2013-04-04 04:38:00,
2013-04-03 21:44:00,54.6,48.9,30.94,ENE,61,0.0,0.0,81,0.00,,,0.00,0,Wunderground v.1.15,2013-04-04 04:44:00,
2013-04-03 21:50:00,54.4,48.7,30.94,ENE,61,0.0,0.0,81,0.00,,,0.00,0,Wunderground v.1.15,2013-04-04 04:50:00,
2013-04-03 21:58:00,54.2,48.8,30.93,ENE,61,0.0,0.0,82,0.00,,,0.00,0,Wunderground v.1.15,2013-04-04 04:58:00,
2013-04-03 22:04:00,54.0,48.6,30.94,ENE,61,0.0,0.0,82,0.00,,,0.00,0,Wunderground v.1.15,2013-04-04 05:04:00,
2013-04-03 22:10:00,53.9,48.5,30.94,ENE,60,0.0,0.0,82,0.00,,,0.00,0,Wunderground v.1.15,2013-04-04 05:10:00,
2013-04-03 22:16:00,53.8,48.4,30.94,ENE,61,0.0,0.0,82,0.00,,,0.00,0,Wunderground v.1.15,2013-04-04 05:16:00,
2013-04-03 22:22:00,53.6,48.2,30.93,ENE,61,0.0,0.0,82,0.00,,,0.00,0,Wunderground v.1.15,2013-04-04 05:22:00,
2013-04-03 22:28:00,53.5,48.5,30.93,ENE,60,0.0,0.0,83,0.00,,,0.00,0,Wunderground v.1.15,2013-04-04 05:28:00,
2013-04-03 22:36:00,53.4,48.4,30.93,ENE,60,0.0,0.0,83,0.00,,,0.00,0,Wunderground v.1.15,2013-04-04 05:36:00,
2013-04-03 22:42:00,53.3,48.3,30.93,ENE,61,0.0,0.0,83,0.00,,,0.00,0,Wunderground v.1.15,2013-04-04 05:42:00,
2013-04-03 22:48:00,53.3,48.3,30.94,ENE,61,0.0,0.0,83,0.00,,,0.00,0,Wunderground v.1.15,2013-04-04 05:48:00,
2013-04-03 22:58:00,53.2,48.2,30.93,ENE,61,0.0,0.0,83,0.00,,,0.00,0,Wunderground v.1.15,2013-04-04 05:58:00,
2013-04-03 23:08:00,53.2,48.5,30.93,ENE,61,0.0,0.0,84,0.00,,,0.00,0,Wunderground v.1.15,2013-04-04 06:08:00,
2013-04-03 23:14:00,53.1,48.4,30.93,ENE,60,0.0,0.0,84,0.00,,,0.00,0,Wunderground v.1.15,2013-04-04 06:14:00,
2013-04-03 23:20:00,53.1,48.4,30.93,ENE,60,0.0,0.0,84,0.00,,,0.00,0,Wunderground v.1.15,2013-04-04 06:20:00,
2013-04-03 23:26:00,53.1,48.4,30.93,ENE,61,0.0,0.0,84,0.00,,,0.00,0,Wunderground v.1.15,2013-04-04 06:26:00,
2013-04-03 23:32:00,53.2,48.5,30.94,ENE,61,0.0,0.0,84,0.00,,,0.00,0,Wunderground v.1.15,2013-04-04 06:32:00,
2013-04-03 23:38:00,53.3,48.9,30.94,ENE,60,0.0,0.0,85,0.00,,,0.00,0,Wunderground v.1.15,2013-04-04 06:38:00,
2013-04-03 23:44:00,53.3,48.9,30.93,ENE,61,0.0,0.0,85,0.00,,,0.00,0,Wunderground v.1.15,2013-04-04 06:44:00,
2013-04-03 23:50:00,53.3,48.9,30.93,ENE,60,0.0,0.0,85,0.00,,,0.00,0,Wunderground v.1.15,2013-04-04 06:50:00,
2013-04-03 23:56:00,53.2,48.8,30.94,ENE,60,0.0,0.0,85,0.00,,,0.00,0,Wunderground v.1.15,2013-04-04 06:56:00,